createdAt,value
2017-07-24T00:01:07.191Z,3.40
2017-07-24T00:03:36.534Z,3.40
2017-07-24T00:06:11.760Z,3.40
2017-07-24T00:08:41.491Z,3.63
2017-07-24T00:11:10.400Z,3.30
2017-07-24T00:13:39.291Z,3.37
2017-07-24T00:16:09.531Z,3.00
2017-07-24T00:18:39.169Z,2.77
2017-07-24T00:21:08.944Z,3.27
2017-07-24T00:23:38.312Z,3.30
2017-07-24T00:26:10.103Z,2.93
2017-07-24T00:28:40.174Z,2.63
2017-07-24T00:31:10.130Z,2.70
2017-07-24T00:33:39.233Z,3.07
2017-07-24T00:36:08.989Z,2.93
2017-07-24T00:38:39.236Z,2.90
2017-07-24T00:41:09.519Z,2.97
2017-07-24T00:43:39.419Z,2.73
2017-07-24T00:46:09.368Z,3.23
2017-07-24T00:48:38.803Z,3.50
2017-07-24T00:51:09.267Z,2.67
2017-07-24T00:53:41.157Z,3.07
2017-07-24T00:56:12.032Z,3.60
2017-07-24T00:58:43.992Z,3.03
2017-07-24T01:01:24.060Z,3.30
2017-07-24T01:03:55.079Z,3.30
2017-07-24T01:06:27.373Z,3.20
2017-07-24T01:08:57.871Z,2.73
2017-07-24T01:11:28.352Z,3.03
2017-07-24T01:16:47.770Z,3.00
2017-07-24T01:22:10.110Z,3.43
2017-07-24T01:24:41.770Z,2.87
2017-07-24T01:27:16.118Z,2.73
2017-07-24T01:29:46.210Z,2.83
2017-07-24T01:32:16.734Z,2.83
2017-07-24T01:34:46.611Z,2.50
2017-07-24T01:37:33.236Z,2.73
2017-07-24T01:40:06.962Z,2.70
2017-07-24T01:42:36.514Z,2.97
2017-07-24T01:45:10.522Z,2.87
2017-07-24T01:47:45.756Z,2.70
2017-07-24T01:50:16.407Z,2.37
2017-07-24T01:52:46.249Z,2.13
2017-07-24T01:55:29.234Z,2.50
2017-07-24T01:57:59.743Z,2.53
2017-07-24T02:00:29.602Z,3.30
2017-07-24T02:03:00.648Z,3.30
2017-07-24T02:05:32.545Z,2.50
2017-07-24T02:08:04.332Z,3.33
2017-07-24T02:10:37.313Z,2.77
2017-07-24T02:13:26.021Z,2.90
2017-07-24T02:15:59.485Z,2.80
2017-07-24T02:18:39.422Z,3.00
2017-07-24T02:21:10.887Z,2.50
2017-07-24T02:23:42.651Z,2.67
2017-07-24T02:26:24.592Z,2.27
2017-07-24T02:31:39.111Z,2.60
2017-07-24T02:34:08.786Z,3.40
2017-07-24T02:36:38.463Z,2.77
2017-07-24T02:39:08.465Z,2.90
2017-07-24T02:46:59.266Z,3.00
2017-07-24T02:49:36.375Z,2.57
2017-07-24T02:52:08.055Z,3.10
2017-07-24T02:57:32.853Z,2.93
2017-07-24T03:00:02.868Z,2.90
2017-07-24T03:02:34.549Z,3.83
2017-07-24T03:05:04.822Z,3.20
2017-07-24T03:07:35.247Z,3.20
2017-07-24T03:10:05.547Z,3.00
2017-07-24T03:12:36.126Z,3.00
2017-07-24T03:15:06.936Z,3.10
2017-07-24T03:17:36.649Z,2.73
2017-07-24T03:20:06.446Z,2.77
2017-07-24T03:22:36.115Z,2.70
2017-07-24T03:25:06.612Z,2.60
2017-07-24T03:27:36.412Z,2.87
2017-07-24T03:30:06.752Z,2.53
2017-07-24T03:32:36.426Z,2.87
2017-07-24T03:35:06.362Z,2.30
2017-07-24T03:37:36.107Z,2.30
2017-07-24T03:40:06.089Z,3.07
2017-07-24T03:42:36.589Z,3.10
2017-07-24T03:45:06.243Z,2.57
2017-07-24T03:47:37.111Z,2.40
2017-07-24T03:50:07.376Z,2.77
2017-07-24T03:52:38.334Z,3.00
2017-07-24T03:55:07.977Z,2.90
2017-07-24T03:57:37.213Z,2.70
2017-07-24T04:00:06.871Z,2.60
2017-07-24T04:02:41.355Z,2.83
2017-07-24T04:05:16.333Z,2.77
2017-07-24T04:07:46.698Z,3.20
2017-07-24T04:10:28.862Z,2.93
2017-07-24T04:13:02.125Z,2.40
2017-07-24T04:15:37.930Z,2.80
2017-07-24T04:18:09.664Z,3.30
2017-07-24T04:20:40.124Z,2.80
2017-07-24T04:23:09.979Z,3.80
2017-07-24T04:25:39.602Z,2.70
2017-07-24T04:28:09.476Z,3.30
2017-07-24T04:30:39.258Z,3.10
2017-07-24T04:33:10.336Z,3.30
2017-07-24T04:35:40.036Z,3.37
2017-07-24T04:38:11.302Z,3.10
2017-07-24T04:40:40.732Z,3.00
2017-07-24T04:43:11.098Z,2.37
2017-07-24T04:45:41.135Z,2.60
2017-07-24T04:48:10.986Z,3.37
2017-07-24T04:50:40.993Z,3.20
2017-07-24T04:53:11.312Z,27.67
2017-07-24T04:55:40.701Z,129.23
2017-07-24T04:58:10.787Z,84.33
2017-07-24T05:00:40.603Z,153.60
2017-07-24T05:03:10.456Z,73.23
2017-07-24T05:05:40.509Z,77.27
2017-07-24T05:08:10.084Z,43.77
2017-07-24T05:10:40.059Z,11.10
2017-07-24T05:13:10.235Z,241.23
2017-07-24T05:15:40.004Z,80.80
2017-07-24T05:18:10.801Z,221.00
2017-07-24T05:20:42.846Z,73.37
2017-07-24T05:23:13.975Z,117.93
2017-07-24T05:25:44.474Z,6.10
2017-07-24T05:28:15.749Z,4.30
2017-07-24T05:30:46.925Z,3.57
2017-07-24T05:33:16.823Z,3.70
2017-07-24T05:35:46.816Z,3.57
2017-07-24T05:38:16.903Z,3.20
2017-07-24T05:40:46.511Z,3.43
2017-07-24T05:43:16.765Z,3.20
2017-07-24T05:45:46.491Z,2.90
2017-07-24T05:48:16.100Z,3.10
2017-07-24T05:50:46.039Z,3.33
2017-07-24T05:53:16.040Z,2.93
2017-07-24T05:55:47.351Z,2.70
2017-07-24T05:58:19.942Z,2.87
2017-07-24T06:00:50.513Z,2.73
2017-07-24T06:03:25.149Z,2.53
2017-07-24T06:05:55.212Z,2.77
2017-07-24T06:08:24.544Z,2.73
2017-07-24T06:10:54.043Z,2.50
2017-07-24T06:13:26.106Z,2.77
2017-07-24T06:15:56.024Z,2.63
2017-07-24T06:18:26.506Z,3.00
2017-07-24T06:20:56.580Z,2.60
2017-07-24T06:23:27.098Z,2.93
2017-07-24T06:26:01.347Z,3.07
2017-07-24T06:28:31.199Z,2.90
2017-07-24T06:31:01.063Z,2.77
2017-07-24T06:33:30.723Z,2.50
2017-07-24T06:36:01.506Z,3.07
2017-07-24T06:38:31.395Z,3.10
2017-07-24T06:42:25.224Z,2.80
2017-07-24T06:44:55.530Z,3.00
2017-07-24T06:47:27.124Z,2.87
2017-07-24T06:49:57.459Z,2.83
2017-07-24T06:52:27.508Z,3.60
2017-07-24T06:54:56.794Z,3.10
2017-07-24T06:57:27.489Z,2.80
2017-07-24T06:59:57.311Z,2.53
2017-07-24T07:02:27.556Z,2.30
2017-07-24T07:04:57.081Z,2.60
2017-07-24T07:07:26.814Z,2.33
2017-07-24T07:09:56.965Z,2.57
2017-07-24T07:12:30.783Z,2.53
2017-07-24T07:15:00.605Z,2.10
2017-07-24T07:17:29.740Z,2.33
2017-07-24T07:19:59.635Z,2.37
2017-07-24T07:22:30.154Z,1.80
2017-07-24T07:24:59.451Z,1.90
2017-07-24T07:27:29.498Z,1.90
2017-07-24T07:29:59.397Z,2.20
2017-07-24T07:32:29.719Z,2.00
2017-07-24T07:34:59.914Z,2.53
2017-07-24T07:37:29.871Z,2.00
2017-07-24T07:40:00.100Z,1.97
2017-07-24T07:42:30.284Z,1.90
2017-07-24T07:44:59.777Z,2.10
2017-07-24T07:47:28.916Z,2.03
2017-07-24T07:49:58.789Z,2.17
2017-07-24T07:52:28.953Z,1.90
2017-07-24T07:54:58.042Z,1.77
2017-07-24T07:57:27.782Z,1.97
2017-07-24T07:59:57.306Z,1.70
2017-07-24T08:02:28.174Z,2.00
2017-07-24T08:04:57.540Z,2.00
2017-07-24T08:07:27.545Z,2.10
2017-07-24T08:09:57.124Z,2.60
2017-07-24T08:12:27.551Z,2.60
2017-07-24T08:14:57.096Z,1.60
2017-07-24T08:17:27.651Z,1.90
2017-07-24T08:19:57.165Z,1.63
2017-07-24T08:22:27.091Z,1.87
2017-07-24T08:24:56.253Z,1.63
2017-07-24T08:27:27.500Z,1.87
2017-07-24T08:29:56.903Z,1.80
2017-07-24T08:32:27.552Z,1.53
2017-07-24T08:34:57.125Z,1.63
2017-07-24T08:37:26.784Z,2.53
2017-07-24T08:39:56.714Z,2.07
2017-07-24T08:42:27.805Z,1.87
2017-07-24T08:44:58.664Z,2.00
2017-07-24T08:47:28.539Z,1.73
2017-07-24T08:49:58.755Z,1.97
2017-07-24T08:52:27.763Z,1.80
2017-07-24T08:54:57.618Z,1.80
2017-07-24T08:57:29.122Z,2.20
2017-07-24T08:59:58.342Z,1.90
2017-07-24T09:02:27.643Z,1.60
2017-07-24T09:04:57.394Z,1.73
2017-07-24T09:07:26.743Z,2.00
2017-07-24T09:09:57.072Z,1.83
2017-07-24T09:12:28.074Z,2.07
2017-07-24T09:14:58.485Z,1.63
2017-07-24T09:17:28.796Z,1.50
2017-07-24T09:19:58.278Z,2.00
2017-07-24T09:22:29.157Z,1.77
2017-07-24T09:24:58.568Z,1.97
2017-07-24T09:27:29.566Z,1.77
2017-07-24T09:29:59.054Z,2.20
2017-07-24T09:32:29.679Z,1.80
2017-07-24T09:34:58.770Z,1.80
2017-07-24T09:37:28.611Z,2.13
2017-07-24T09:39:58.025Z,2.23
2017-07-24T09:42:33.694Z,2.00
2017-07-24T09:45:03.611Z,1.83
2017-07-24T09:47:33.141Z,1.60
2017-07-24T09:50:03.897Z,1.87
2017-07-24T09:52:33.461Z,2.10
2017-07-24T09:55:04.223Z,2.00
2017-07-24T09:57:34.143Z,1.90
2017-07-24T10:00:03.917Z,1.67
2017-07-24T10:02:38.288Z,2.47
2017-07-24T10:05:08.237Z,1.67
2017-07-24T10:07:38.152Z,1.83
2017-07-24T10:10:08.187Z,1.97
2017-07-24T10:12:37.304Z,2.30
2017-07-24T10:15:06.765Z,1.80
2017-07-24T10:17:35.924Z,2.30
2017-07-24T10:20:05.915Z,2.10
2017-07-24T10:22:35.016Z,1.80
2017-07-24T10:25:05.646Z,1.83
2017-07-24T10:27:35.585Z,2.23
2017-07-24T10:30:05.171Z,1.83
2017-07-24T10:32:34.295Z,2.30
2017-07-24T10:35:03.633Z,2.33
2017-07-24T10:37:33.486Z,2.27
2017-07-24T10:40:02.857Z,2.03
2017-07-24T10:42:32.198Z,2.20
2017-07-24T10:45:01.404Z,1.97
2017-07-24T10:47:30.789Z,1.97
2017-07-24T10:49:59.987Z,2.33
2017-07-24T10:52:30.617Z,2.00
2017-07-24T10:54:59.817Z,1.70
2017-07-24T10:57:29.029Z,2.07
2017-07-24T11:00:05.751Z,1.60
2017-07-24T11:02:35.045Z,2.10
2017-07-24T11:05:04.514Z,2.40
2017-07-24T11:07:34.051Z,2.00
2017-07-24T11:10:03.728Z,2.20
2017-07-24T11:12:33.855Z,2.20
2017-07-24T11:15:03.365Z,2.30
2017-07-24T11:17:32.868Z,2.27
2017-07-24T11:20:02.110Z,2.40
2017-07-24T11:22:31.622Z,2.13
2017-07-24T11:25:03.224Z,2.20
2017-07-24T11:27:32.855Z,2.30
2017-07-24T11:30:02.173Z,2.50
2017-07-24T11:32:31.628Z,2.53
2017-07-24T11:35:01.194Z,2.97
2017-07-24T11:37:30.594Z,2.50
2017-07-24T11:40:00.507Z,3.10
2017-07-24T11:42:30.494Z,3.03
2017-07-24T11:44:59.840Z,2.40
2017-07-24T11:47:29.014Z,3.10
2017-07-24T11:49:58.167Z,2.50
2017-07-24T11:52:28.308Z,3.10
2017-07-24T11:54:57.457Z,2.93
2017-07-24T11:57:27.364Z,2.80
2017-07-24T11:59:56.513Z,2.90
2017-07-24T12:02:26.421Z,2.90
2017-07-24T12:04:55.512Z,2.43
2017-07-24T12:07:26.347Z,2.73
2017-07-24T12:09:55.465Z,2.73
2017-07-24T12:12:25.214Z,3.10
2017-07-24T12:14:54.384Z,2.87
2017-07-24T12:17:24.491Z,2.57
2017-07-24T12:19:53.577Z,3.13
2017-07-24T12:22:24.348Z,2.60
2017-07-24T12:24:54.084Z,2.70
2017-07-24T12:27:24.838Z,2.70
2017-07-24T12:29:54.171Z,3.33
2017-07-24T12:32:23.503Z,2.97
2017-07-24T12:34:52.582Z,4.20
2017-07-24T12:37:24.953Z,2.97
2017-07-24T12:39:54.188Z,2.83
2017-07-24T12:42:25.863Z,3.13
2017-07-24T12:44:55.207Z,3.00
2017-07-24T12:47:25.558Z,3.00
2017-07-24T12:49:55.145Z,2.90
2017-07-24T12:52:25.980Z,2.90
2017-07-24T12:54:56.046Z,2.80
2017-07-24T12:57:28.340Z,2.50
2017-07-24T12:59:57.507Z,2.87
2017-07-24T13:02:26.780Z,2.63
2017-07-24T13:04:56.327Z,2.70
2017-07-24T13:07:28.205Z,2.97
2017-07-24T13:09:58.047Z,3.20
2017-07-24T13:12:27.543Z,2.80
2017-07-24T13:14:56.647Z,2.43
2017-07-24T13:17:26.000Z,2.87
2017-07-24T13:19:55.056Z,3.00
2017-07-24T13:22:26.620Z,2.83
2017-07-24T13:24:55.818Z,2.50
2017-07-24T13:27:26.325Z,2.87
2017-07-24T13:29:55.417Z,2.53
2017-07-24T13:32:30.577Z,2.83
2017-07-24T13:34:59.664Z,2.90
2017-07-24T13:37:29.192Z,3.00
2017-07-24T13:39:58.373Z,3.50
2017-07-24T13:42:27.682Z,2.50
2017-07-24T13:44:57.556Z,2.90
2017-07-24T13:47:26.694Z,2.87
2017-07-24T13:49:55.702Z,3.47
2017-07-24T13:52:24.706Z,2.90
2017-07-24T13:54:53.877Z,2.77
2017-07-24T13:57:23.390Z,3.40
2017-07-24T13:59:52.497Z,3.10
2017-07-24T14:02:22.630Z,2.90
2017-07-24T14:04:51.879Z,3.60
2017-07-24T14:07:26.815Z,3.00
2017-07-24T14:09:55.931Z,3.50
2017-07-24T14:12:26.360Z,2.30
2017-07-24T14:14:55.448Z,2.93
2017-07-24T14:17:25.547Z,2.70
2017-07-24T14:19:54.799Z,3.33
2017-07-24T14:22:23.936Z,2.80
2017-07-24T14:24:53.075Z,3.03
2017-07-24T14:27:24.643Z,2.93
2017-07-24T14:29:53.660Z,3.00
2017-07-24T14:32:22.873Z,2.83
2017-07-24T14:34:52.325Z,2.73
2017-07-24T14:37:25.390Z,3.27
2017-07-24T14:39:54.497Z,3.03
2017-07-24T14:42:24.345Z,2.80
2017-07-24T14:44:53.770Z,272.77
2017-07-24T14:47:23.687Z,969.67
2017-07-24T14:49:52.865Z,453.23
2017-07-24T14:52:24.829Z,285.73
2017-07-24T14:54:54.362Z,250.60
2017-07-24T14:57:25.649Z,191.27
2017-07-24T14:59:54.820Z,165.77
2017-07-24T15:02:24.158Z,366.73
2017-07-24T15:04:53.406Z,525.77
2017-07-24T15:07:25.613Z,458.23
2017-07-24T15:09:54.777Z,914.57
2017-07-24T15:12:25.494Z,379.53
2017-07-24T15:14:55.152Z,459.13
2017-07-24T15:17:25.849Z,290.07
2017-07-24T15:19:55.180Z,275.40
2017-07-24T15:22:24.815Z,458.30
2017-07-24T15:24:54.008Z,327.80
2017-07-24T15:27:25.490Z,252.17
2017-07-24T15:29:55.570Z,430.70
2017-07-24T15:32:26.437Z,170.07
2017-07-24T15:34:55.568Z,135.67
2017-07-24T15:37:28.361Z,150.43
2017-07-24T15:39:58.376Z,344.83
2017-07-24T15:42:27.812Z,501.00
2017-07-24T15:44:57.507Z,722.17
2017-07-24T15:47:27.631Z,999.90
2017-07-24T15:49:57.150Z,322.97
2017-07-24T15:52:28.093Z,158.70
2017-07-24T15:54:57.168Z,226.00
2017-07-24T15:57:27.149Z,445.10
2017-07-24T15:59:56.628Z,257.50
2017-07-24T16:02:28.420Z,317.13
2017-07-24T16:04:57.624Z,297.17
2017-07-24T16:07:27.400Z,375.13
2017-07-24T16:09:57.079Z,451.33
2017-07-24T16:12:26.678Z,328.23
2017-07-24T16:14:56.147Z,301.47
2017-07-24T16:17:26.318Z,264.13
2017-07-24T16:19:55.875Z,216.77
2017-07-24T16:22:26.862Z,176.50
2017-07-24T16:24:56.169Z,163.37
2017-07-24T16:27:26.899Z,135.20
2017-07-24T16:29:57.154Z,121.73
2017-07-24T16:32:30.630Z,562.03
2017-07-24T16:34:59.717Z,91.70
2017-07-24T16:37:29.248Z,300.87
2017-07-24T16:39:58.397Z,66.27
2017-07-24T16:42:31.392Z,177.47
2017-07-24T16:45:00.812Z,65.67
2017-07-24T16:47:29.963Z,48.13
2017-07-24T16:49:59.108Z,43.37
2017-07-24T16:52:29.121Z,34.50
2017-07-24T16:54:58.701Z,37.40
2017-07-24T16:57:28.717Z,33.00
2017-07-24T16:59:58.453Z,27.20
2017-07-24T17:02:27.860Z,659.83
2017-07-24T17:04:56.962Z,244.30
2017-07-24T17:07:27.026Z,43.70
2017-07-24T17:09:56.325Z,21.97
2017-07-24T17:12:26.604Z,20.93
2017-07-24T17:14:56.140Z,27.33
2017-07-24T17:17:26.058Z,928.03
2017-07-24T17:19:55.185Z,709.37
2017-07-24T17:22:27.148Z,334.53
2017-07-24T17:24:56.358Z,224.30
2017-07-24T17:27:26.743Z,203.53
2017-07-24T17:29:56.444Z,159.60
2017-07-24T17:32:27.211Z,121.33
2017-07-24T17:34:56.744Z,89.87
2017-07-24T17:37:26.923Z,92.30
2017-07-24T17:39:56.134Z,73.37
2017-07-24T17:42:26.091Z,48.87
2017-07-24T17:44:55.555Z,45.20
2017-07-24T17:47:26.548Z,41.07
2017-07-24T17:49:55.725Z,36.60
2017-07-24T17:52:27.050Z,28.10
2017-07-24T17:54:57.619Z,177.27
2017-07-24T17:57:27.144Z,581.40
2017-07-24T17:59:57.025Z,349.83
2017-07-24T18:02:26.228Z,247.07
2017-07-24T18:04:56.634Z,164.00
2017-07-24T18:07:26.552Z,131.03
2017-07-24T18:09:55.832Z,114.63
2017-07-24T18:12:25.642Z,93.43
2017-07-24T18:14:55.619Z,506.70
2017-07-24T18:17:24.808Z,70.87
2017-07-24T18:19:54.403Z,54.33
2017-07-24T18:22:25.239Z,44.83
2017-07-24T18:24:54.455Z,161.80
2017-07-24T18:27:25.939Z,321.10
2017-07-24T18:29:55.338Z,56.30
2017-07-24T18:32:26.076Z,25.50
2017-07-24T18:34:55.154Z,23.67
2017-07-24T18:37:27.398Z,22.13
2017-07-24T18:39:56.461Z,18.83
2017-07-24T18:42:27.137Z,15.93
2017-07-24T18:44:56.567Z,98.20
2017-07-24T18:47:27.209Z,17.37
2017-07-24T18:49:56.323Z,12.03
2017-07-24T18:52:26.352Z,126.90
2017-07-24T18:54:55.561Z,135.33
2017-07-24T18:57:25.907Z,10.97
2017-07-24T18:59:59.070Z,7.17
2017-07-24T19:02:28.216Z,5.63
2017-07-24T19:04:57.440Z,5.10
2017-07-24T19:07:28.062Z,651.00
2017-07-24T19:09:57.409Z,539.33
2017-07-24T19:12:27.180Z,406.70
2017-07-24T19:14:56.780Z,194.77
2017-07-24T19:17:26.226Z,155.70
2017-07-24T19:19:56.726Z,140.47
2017-07-24T19:22:25.910Z,106.43
2017-07-24T19:24:55.598Z,70.43
2017-07-24T19:27:24.747Z,60.43
2017-07-24T19:29:54.125Z,49.23
2017-07-24T19:32:26.374Z,40.20
2017-07-24T19:34:56.839Z,33.47
2017-07-24T19:37:27.812Z,32.73
2017-07-24T19:39:58.178Z,32.00
2017-07-24T19:42:28.016Z,26.63
2017-07-24T19:44:57.427Z,21.90
2017-07-24T19:47:28.345Z,14.40
2017-07-24T19:49:57.583Z,32.37
2017-07-24T19:52:27.144Z,21.43
2017-07-24T19:54:56.276Z,6.97
2017-07-24T19:57:25.643Z,231.33
2017-07-24T19:59:55.094Z,168.53
2017-07-24T20:02:25.830Z,125.53
2017-07-24T20:04:54.914Z,53.67
2017-07-24T20:07:25.918Z,46.33
2017-07-24T20:09:55.102Z,26.97
2017-07-24T20:12:24.561Z,22.10
2017-07-24T20:14:53.857Z,12.20
2017-07-24T20:17:23.736Z,9.70
2017-07-24T20:19:53.233Z,5.47
2017-07-24T20:22:23.148Z,5.27
2017-07-24T20:24:52.368Z,4.20
2017-07-24T20:27:24.114Z,2.80
2017-07-24T20:29:53.416Z,2.03
2017-07-24T20:32:24.371Z,1.73
2017-07-24T20:34:54.074Z,1.87
2017-07-24T20:37:25.865Z,1.33
2017-07-24T20:39:55.147Z,1.00
2017-07-24T20:42:24.285Z,1.30
2017-07-24T20:44:53.508Z,1.50
2017-07-24T20:47:25.199Z,1.63
2017-07-24T20:49:54.843Z,0.87
2017-07-24T20:52:24.976Z,1.00
2017-07-24T20:54:55.257Z,0.80
2017-07-24T20:57:26.379Z,0.90
2017-07-24T20:59:55.763Z,16.40
2017-07-24T21:02:25.911Z,239.00
2017-07-24T21:04:55.822Z,314.43
2017-07-24T21:07:26.088Z,105.13
2017-07-24T21:09:55.281Z,53.23
2017-07-24T21:12:25.462Z,35.57
2017-07-24T21:14:56.104Z,23.67
2017-07-24T21:17:26.321Z,14.50
2017-07-24T21:19:55.886Z,9.90
2017-07-24T21:22:25.314Z,7.90
2017-07-24T21:24:54.356Z,6.10
2017-07-24T21:27:25.407Z,4.20
2017-07-24T21:29:54.494Z,2.90
2017-07-24T21:32:23.864Z,2.20
2017-07-24T21:34:53.801Z,2.03
2017-07-24T21:37:23.229Z,1.57
2017-07-24T21:39:52.486Z,1.63
2017-07-24T21:42:22.840Z,1.13
2017-07-24T21:44:51.969Z,1.40
2017-07-24T21:47:27.995Z,1.10
2017-07-24T21:49:57.261Z,1.07
2017-07-24T21:52:27.148Z,1.03
2017-07-24T21:54:56.697Z,1.13
2017-07-24T21:57:26.532Z,168.00
2017-07-24T21:59:55.754Z,210.83
2017-07-24T22:02:25.957Z,153.47
2017-07-24T22:04:55.070Z,81.87
2017-07-24T22:07:25.567Z,52.10
2017-07-24T22:09:56.905Z,31.97
2017-07-24T22:12:31.080Z,22.93
2017-07-24T22:15:03.745Z,15.93
2017-07-24T22:17:33.174Z,10.60
2017-07-24T22:20:03.125Z,6.90
2017-07-24T22:22:32.398Z,5.60
2017-07-24T22:25:02.656Z,4.90
2017-07-24T22:27:31.765Z,3.53
2017-07-24T22:30:01.873Z,2.50
2017-07-24T22:32:31.599Z,1.87
2017-07-24T22:35:00.786Z,1.90
2017-07-24T22:37:39.879Z,1.60
2017-07-24T22:40:24.747Z,1.57
2017-07-24T22:42:54.015Z,1.37
2017-07-24T22:45:25.159Z,1.33
2017-07-24T22:47:54.784Z,1.17
2017-07-24T22:50:23.832Z,1.30
2017-07-24T22:52:54.143Z,1.17
2017-07-24T22:55:25.930Z,0.90
2017-07-24T22:57:55.104Z,0.80
2017-07-24T23:00:25.521Z,1.10
2017-07-24T23:02:54.972Z,0.90
2017-07-24T23:05:26.497Z,0.73
2017-07-24T23:07:56.328Z,1.07
2017-07-24T23:10:25.477Z,1.00
2017-07-24T23:12:55.162Z,0.97
2017-07-24T23:15:25.384Z,1.00
2017-07-24T23:17:54.980Z,0.73
2017-07-24T23:20:24.520Z,1.03
2017-07-24T23:22:53.587Z,0.90
2017-07-24T23:25:26.284Z,0.80
2017-07-24T23:27:55.526Z,0.90
2017-07-24T23:30:25.799Z,1.00
2017-07-24T23:32:54.917Z,0.80
2017-07-24T23:35:25.720Z,0.80
2017-07-24T23:37:55.316Z,0.87
2017-07-24T23:40:25.995Z,0.70
2017-07-24T23:42:55.535Z,0.87
2017-07-24T23:45:25.486Z,0.93
2017-07-24T23:47:54.569Z,0.70
2017-07-24T23:50:24.038Z,0.80
2017-07-24T23:52:53.152Z,0.70
2017-07-24T23:55:23.540Z,0.80
2017-07-24T23:57:52.661Z,1.00
